createdAt,value
2022-10-06T00:03:31.180Z,93.5
2022-10-06T00:08:37.294Z,93
2022-10-06T00:13:43.428Z,93.5
2022-10-06T00:18:49.551Z,91.5
2022-10-06T00:23:55.621Z,91
2022-10-06T00:29:01.742Z,90
2022-10-06T00:34:07.836Z,90.5
2022-10-06T00:39:12.972Z,90
2022-10-06T00:44:19.100Z,90
2022-10-06T00:49:25.190Z,90.5
2022-10-06T00:54:31.312Z,90
2022-10-06T00:59:37.426Z,91
2022-10-06T01:04:43.531Z,92.5
2022-10-06T01:09:49.654Z,92
2022-10-06T01:14:55.746Z,91
2022-10-06T01:20:01.870Z,90
2022-10-06T01:25:07.980Z,91.5
2022-10-06T01:30:14.081Z,92
2022-10-06T01:35:20.212Z,91.5
2022-10-06T01:40:26.314Z,92
2022-10-06T01:45:31.452Z,91
2022-10-06T01:50:37.539Z,89
2022-10-06T01:55:43.662Z,89.5
2022-10-06T02:00:49.797Z,88
2022-10-06T02:05:55.886Z,89
2022-10-06T02:11:01.996Z,89.5
2022-10-06T02:16:08.106Z,89
2022-10-06T02:21:14.221Z,89.5
2022-10-06T02:26:20.342Z,90
2022-10-06T02:31:26.446Z,90
2022-10-06T02:36:32.548Z,90
2022-10-06T02:41:38.664Z,89.5
2022-10-06T02:46:44.786Z,90
2022-10-06T02:51:49.924Z,91
2022-10-06T02:56:56.019Z,91
2022-10-06T03:02:02.123Z,91.5
2022-10-06T03:07:08.239Z,90
2022-10-06T03:12:14.346Z,88.5
2022-10-06T03:17:20.505Z,89
2022-10-06T03:22:26.585Z,93
2022-10-06T03:27:32.677Z,94
2022-10-06T03:32:38.802Z,95.5
2022-10-06T03:37:44.908Z,95.5
2022-10-06T03:42:51.029Z,95
2022-10-06T03:47:57.126Z,95
2022-10-06T03:53:03.239Z,93
2022-10-06T03:58:08.364Z,90.5
2022-10-06T04:03:14.484Z,89.5
2022-10-06T04:08:20.614Z,89
2022-10-06T04:13:26.712Z,85
2022-10-06T04:18:32.810Z,84
2022-10-06T04:23:38.922Z,82
2022-10-06T04:28:45.043Z,81.5
2022-10-06T04:33:51.159Z,79.5
2022-10-06T04:38:57.301Z,81.5
2022-10-06T04:44:03.367Z,83
2022-10-06T04:49:09.500Z,82.5
2022-10-06T04:54:15.609Z,83
2022-10-06T04:59:21.706Z,83
2022-10-06T05:04:26.848Z,84.5
2022-10-06T05:09:33.065Z,84.5
2022-10-06T05:14:39.059Z,85.5
2022-10-06T05:19:45.181Z,84
2022-10-06T05:24:51.287Z,84.5
2022-10-06T05:29:57.408Z,84
2022-10-06T05:35:03.503Z,83.5
2022-10-06T05:40:09.621Z,84.5
2022-10-06T05:45:15.730Z,84.5
2022-10-06T05:50:21.841Z,85
2022-10-06T05:55:27.968Z,85.5
2022-10-06T06:00:34.076Z,85.5
2022-10-06T06:05:40.171Z,85.5
2022-10-06T06:10:45.304Z,85.5
2022-10-06T06:15:51.422Z,85.5
2022-10-06T06:20:57.536Z,86
2022-10-06T06:26:03.638Z,86
2022-10-06T06:31:09.755Z,86.5
2022-10-06T06:36:15.869Z,85.5
2022-10-06T06:41:21.984Z,84
2022-10-06T06:46:28.092Z,84
2022-10-06T06:51:34.236Z,83
2022-10-06T06:56:40.321Z,81.5
2022-10-06T07:01:46.423Z,81
2022-10-06T07:06:52.524Z,81
2022-10-06T07:11:58.748Z,80
2022-10-06T07:17:03.898Z,80
2022-10-06T07:22:09.943Z,79
2022-10-06T07:27:15.993Z,78.5
2022-10-06T07:32:22.107Z,78
2022-10-06T07:37:28.220Z,77.5
2022-10-06T07:42:34.338Z,76
2022-10-06T07:47:40.457Z,74
2022-10-06T07:52:46.544Z,75.5
2022-10-06T07:57:52.681Z,74.5
2022-10-06T08:02:58.769Z,72
2022-10-06T08:08:04.908Z,73.5
2022-10-06T08:13:10.988Z,73
2022-10-06T08:18:17.119Z,73
2022-10-06T08:23:22.231Z,71.5
2022-10-06T08:28:28.363Z,69.5
2022-10-06T08:33:34.444Z,71
2022-10-06T08:38:40.568Z,67
2022-10-06T08:43:46.678Z,69.5
2022-10-06T08:48:52.774Z,66.5
2022-10-06T08:53:58.932Z,65
2022-10-06T08:59:05.021Z,64.5
2022-10-06T09:04:11.122Z,60.5
2022-10-06T09:09:17.247Z,60
2022-10-06T09:14:23.383Z,58.5
2022-10-06T09:34:58.914Z,60
2022-10-06T09:50:05.149Z,55
2022-10-06T09:55:11.259Z,55.5
2022-10-06T10:00:17.353Z,54.5
2022-10-06T10:05:23.530Z,57
2022-10-06T10:10:29.626Z,56
2022-10-06T10:15:35.697Z,58.5
2022-10-06T10:20:41.813Z,55.5
2022-10-06T10:25:47.919Z,59
2022-10-06T10:30:54.040Z,58.5
2022-10-06T10:35:59.195Z,58
2022-10-06T10:41:05.271Z,59
2022-10-06T10:46:11.395Z,61.5
2022-10-06T10:51:17.507Z,58.5
2022-10-06T10:56:23.681Z,56
2022-10-06T11:01:29.791Z,54.5
2022-10-06T11:06:35.839Z,56
2022-10-06T11:11:41.945Z,55
2022-10-06T11:16:48.046Z,54.5
2022-10-06T11:21:54.163Z,53.5
2022-10-06T11:27:00.257Z,53
2022-10-06T11:32:06.393Z,54
2022-10-06T11:37:12.501Z,54
2022-10-06T11:42:17.621Z,55
2022-10-06T11:47:23.718Z,52
2022-10-06T11:52:29.835Z,53.5
2022-10-06T11:57:35.954Z,57
2022-10-06T12:02:42.065Z,55
2022-10-06T12:07:48.178Z,56.5
2022-10-06T12:12:54.271Z,55.5
2022-10-06T12:18:00.406Z,51
2022-10-06T12:23:06.494Z,51
2022-10-06T12:28:12.611Z,50.5
2022-10-06T12:33:18.819Z,51
2022-10-06T12:38:24.826Z,49
2022-10-06T12:43:31.015Z,49
2022-10-06T12:48:36.102Z,49.5
2022-10-06T12:53:42.181Z,51.5
2022-10-06T12:58:48.308Z,51
2022-10-06T13:03:54.443Z,49
2022-10-06T13:09:00.523Z,47
2022-10-06T13:14:06.630Z,51
2022-10-06T13:19:11.779Z,48
2022-10-06T13:24:17.868Z,49
2022-10-06T13:29:24.064Z,51.5
2022-10-06T13:34:30.092Z,48.5
2022-10-06T13:39:36.238Z,49.5
2022-10-06T13:44:42.310Z,48
2022-10-06T13:49:48.446Z,46.5
2022-10-06T13:54:54.539Z,47
2022-10-06T14:00:00.656Z,46.5
2022-10-06T14:05:06.769Z,44
2022-10-06T14:10:12.881Z,42
2022-10-06T14:15:18.981Z,42
2022-10-06T14:20:25.125Z,40.5
2022-10-06T14:25:30.217Z,39.5
2022-10-06T14:30:36.326Z,38.5
2022-10-06T14:35:42.439Z,37.5
2022-10-06T14:40:48.549Z,37.5
2022-10-06T14:45:54.678Z,38
2022-10-06T14:51:00.799Z,37.5
2022-10-06T14:56:06.936Z,38.5
2022-10-06T15:01:13.001Z,39.5
2022-10-06T15:06:19.120Z,38.5
2022-10-06T15:11:25.259Z,41.5
2022-10-06T15:16:31.358Z,47
2022-10-06T15:21:37.445Z,49
2022-10-06T15:26:43.556Z,50.5
2022-10-06T15:31:48.696Z,52
2022-10-06T15:36:54.805Z,52
2022-10-06T15:42:00.929Z,52.5
2022-10-06T15:47:07.030Z,53.5
2022-10-06T15:52:13.134Z,56.5
2022-10-06T15:57:19.231Z,58.5
2022-10-06T16:02:25.360Z,62.5
2022-10-06T16:07:31.458Z,67.5
2022-10-06T16:12:37.585Z,69.5
2022-10-06T16:17:43.698Z,72.5
2022-10-06T16:22:49.793Z,76.5
2022-10-06T16:27:55.908Z,77
2022-10-06T16:33:02.020Z,82.5
2022-10-06T16:38:07.147Z,85
2022-10-06T16:43:13.267Z,87.5
2022-10-06T16:48:19.383Z,88.5
2022-10-06T16:53:25.480Z,91
2022-10-06T16:58:31.601Z,90.5
2022-10-06T17:03:37.718Z,93
2022-10-06T17:08:43.817Z,94
2022-10-06T17:13:49.927Z,94.5
2022-10-06T17:18:56.056Z,95.5
2022-10-06T17:24:02.185Z,95.5
2022-10-06T17:29:08.263Z,95
2022-10-06T17:34:14.439Z,97
2022-10-06T17:39:20.506Z,98
2022-10-06T17:44:25.612Z,97
2022-10-06T17:49:31.752Z,99.5
2022-10-06T17:54:37.890Z,99.5
2022-10-06T17:59:43.967Z,99.5
2022-10-06T18:04:50.066Z,99.5
2022-10-06T18:09:56.191Z,99.5
2022-10-06T18:15:02.302Z,98.5
2022-10-06T18:20:08.407Z,99
2022-10-06T18:25:14.515Z,99.5
2022-10-06T18:30:20.631Z,99.5
2022-10-06T18:35:26.756Z,99.5
2022-10-06T18:40:32.873Z,99.5
2022-10-06T18:45:38.980Z,99.5
2022-10-06T18:50:44.108Z,99.5
2022-10-06T18:55:50.225Z,99.5
2022-10-06T19:00:56.325Z,99.5
2022-10-06T19:06:02.482Z,99.5
2022-10-06T19:11:08.619Z,99.5
2022-10-06T19:16:14.717Z,99.5
2022-10-06T19:21:20.824Z,99.5
2022-10-06T19:26:26.953Z,99.5
2022-10-06T19:31:33.064Z,99.5
2022-10-06T19:36:39.164Z,99.5
2022-10-06T19:41:45.270Z,99.5
2022-10-06T19:46:51.385Z,99.5
2022-10-06T19:51:57.516Z,99.5
2022-10-06T19:57:02.628Z,99.5
2022-10-06T20:07:14.856Z,99.5
2022-10-06T20:12:20.969Z,99.5
2022-10-06T20:17:27.082Z,99.5
2022-10-06T20:22:33.193Z,99.5
2022-10-06T20:27:39.321Z,99.5
2022-10-06T20:32:45.426Z,99.5
2022-10-06T20:37:51.535Z,99.5
2022-10-06T20:42:57.686Z,99.5
2022-10-06T20:48:03.808Z,99.5
2022-10-06T20:53:09.931Z,99.5
2022-10-06T20:58:16.033Z,99.5
2022-10-06T21:03:21.176Z,99.5
2022-10-06T21:08:27.282Z,99.5
2022-10-06T21:13:33.400Z,99.5
2022-10-06T21:18:39.506Z,99.5
2022-10-06T21:23:45.613Z,99.5
2022-10-06T21:28:51.774Z,99.5
2022-10-06T21:33:57.880Z,99.5
2022-10-06T21:39:03.992Z,99.5
2022-10-06T21:44:10.137Z,99.5
2022-10-06T21:49:16.233Z,99.5
2022-10-06T21:54:22.365Z,99.5
2022-10-06T21:59:28.471Z,99.5
2022-10-06T22:04:34.587Z,99.5
2022-10-06T22:09:39.714Z,99.5
2022-10-06T22:14:45.818Z,99.5
2022-10-06T22:19:51.977Z,99.5
2022-10-06T22:24:58.092Z,99.5
2022-10-06T22:30:04.217Z,99.5
2022-10-06T22:35:10.336Z,99.5
2022-10-06T22:40:16.449Z,99.5
2022-10-06T22:45:22.566Z,99.5
2022-10-06T22:50:28.662Z,99.5
2022-10-06T22:55:34.785Z,99.5
2022-10-06T23:00:40.899Z,99.5
2022-10-06T23:05:47.094Z,99.5
2022-10-06T23:10:53.211Z,99.5
2022-10-06T23:15:58.341Z,99.5
2022-10-06T23:21:04.457Z,99.5
2022-10-06T23:26:10.573Z,99.5
2022-10-06T23:31:16.690Z,99.5
2022-10-06T23:36:22.790Z,99.5
2022-10-06T23:41:28.912Z,99.5
2022-10-06T23:46:35.047Z,99.5
2022-10-06T23:51:41.142Z,99.5
2022-10-06T23:56:47.259Z,99.5
